Time;durP1;ratioP1;P1;durP2;ratioP2;P2;SDS_P1;SDS_P2;PMS_P1;PMS_P2;Temp;Humidity;BMP_temperature;BMP_pressure;BME280_temperature;BME280_humidity;BME280_pressure;Samples;Min_cycle;Max_cycle;Signal;HPM_P1;HPM_P2
2021/06/23 00:00:44;;;;;;;27.87;24.87;;;17.30;99.90;;;;;;4934186;29;20486;-87
2021/06/23 00:03:37;;;;;;;27.30;24.60;;;17.50;99.90;;;;;;4933539;29;20497;-86
2021/06/23 00:06:39;;;;;;;28.17;25.20;;;17.40;99.90;;;;;;4930154;29;20534;-83
2021/06/23 00:09:17;;;;;;;29.63;26.70;;;17.60;99.90;;;;;;4955500;28;20618;-85
2021/06/23 00:12:14;;;;;;;33.37;26.97;;;17.70;99.90;;;;;;5020177;28;21261;-85
2021/06/23 00:15:33;;;;;;;28.63;25.60;;;17.60;99.90;;;;;;5032481;28;20452;-85
2021/06/23 00:18:48;;;;;;;29.07;25.90;;;17.40;99.90;;;;;;4977766;28;20481;-83
2021/06/23 00:21:34;;;;;;;30.80;27.60;;;17.60;99.90;;;;;;5027425;28;21388;-84
2021/06/23 00:27:22;;;;;;;26.27;23.63;;;17.30;99.90;;;;;;4998566;28;20480;-83
2021/06/23 00:30:21;;;;;;;28.57;25.77;;;17.20;99.90;;;;;;5022038;28;20472;-84
2021/06/23 00:33:03;;;;;;;28.73;25.77;;;17.40;99.90;;;;;;5027133;28;20455;-84
2021/06/23 00:35:49;;;;;;;27.23;24.43;;;17.50;99.90;;;;;;5028735;28;20460;-84
2021/06/23 00:38:54;;;;;;;30.07;26.87;;;17.30;99.90;;;;;;5038211;28;20487;-85
2021/06/23 00:41:40;;;;;;;28.03;24.30;;;17.30;99.90;;;;;;5025793;28;20472;-82
2021/06/23 00:44:25;;;;;;;25.60;22.93;;;17.50;99.90;;;;;;5021533;28;22137;-85
2021/06/23 00:47:24;;;;;;;29.93;25.60;;;17.70;99.90;;;;;;5024561;28;20466;-82
2021/06/23 00:50:04;;;;;;;27.67;24.97;;;17.60;99.90;;;;;;5019013;28;20464;-85
2021/06/23 00:53:34;;;;;;;27.40;24.73;;;17.50;99.90;;;;;;5020402;28;20465;-83
2021/06/23 00:56:35;;;;;;;26.47;23.63;;;17.40;99.90;;;;;;5025078;28;20945;-83
2021/06/23 00:59:26;;;;;;;25.80;22.80;;;17.30;99.90;;;;;;5025688;28;20480;-85
2021/06/23 01:02:06;;;;;;;25.60;23.10;;;17.30;99.90;;;;;;5028488;28;20591;-85
2021/06/23 01:04:49;;;;;;;23.83;21.50;;;17.30;99.90;;;;;;5024165;28;20546;-84
2021/06/23 01:07:44;;;;;;;25.97;23.37;;;17.40;99.90;;;;;;5023796;28;20448;-83
2021/06/23 01:10:27;;;;;;;24.87;22.23;;;17.40;99.90;;;;;;5023547;28;20543;-85
2021/06/23 01:13:43;;;;;;;27.13;23.87;;;17.30;99.90;;;;;;5033226;28;20633;-85
2021/06/23 01:16:29;;;;;;;25.40;23.07;;;17.40;99.90;;;;;;5004807;28;20482;-84
2021/06/23 01:19:18;;;;;;;27.73;24.87;;;17.30;99.90;;;;;;5025591;28;20821;-84
2021/06/23 01:22:18;;;;;;;;;;;;;;;;;;;;;
2021/06/23 01:25:14;;;;;;;25.63;23.00;;;17.40;99.90;;;;;;5037737;28;20428;-84
2021/06/23 01:28:02;;;;;;;24.97;22.47;;;17.30;99.90;;;;;;5039714;28;20472;-84
2021/06/23 01:31:08;;;;;;;27.50;24.60;;;17.40;99.90;;;;;;5028946;28;20420;-84
2021/06/23 01:37:33;;;;;;;24.77;22.40;;;17.30;99.90;;;;;;5039269;28;20456;-81
2021/06/23 01:40:23;;;;;;;27.50;24.50;;;17.70;99.90;;;;;;5028101;28;20464;-83
2021/06/23 01:43:20;;;;;;;25.90;23.30;;;17.80;99.90;;;;;;5038203;28;20419;-83
2021/06/23 01:46:24;;;;;;;26.53;23.90;;;17.50;99.90;;;;;;5043375;28;20424;-82
2021/06/23 01:49:04;;;;;;;25.73;23.13;;;17.40;99.90;;;;;;5041535;28;20595;-84
2021/06/23 01:52:54;;;;;;;25.60;22.77;;;17.30;99.90;;;;;;5031936;28;20444;-85
2021/06/23 01:55:30;;;;;;;24.40;22.20;;;17.20;99.90;;;;;;5040968;28;20447;-84
2021/06/23 02:02:01;;;;;;;23.33;21.03;;;17.40;99.90;;;;;;5042051;28;20997;-85
2021/06/23 02:05:08;;;;;;;24.17;21.83;;;17.30;99.90;;;;;;5023577;28;20457;-84
2021/06/23 02:08:00;;;;;;;24.67;22.00;;;17.30;99.90;;;;;;5020279;28;20456;-84
2021/06/23 02:11:18;;;;;;;25.23;21.97;;;17.40;99.90;;;;;;5029032;28;21000;-84
2021/06/23 02:14:12;;;;;;;22.77;20.63;;;17.30;99.90;;;;;;5020808;28;20464;-85
2021/06/23 02:17:02;;;;;;;21.90;19.57;;;17.40;99.90;;;;;;5008794;28;20531;-84
2021/06/23 02:20:07;;;;;;;24.00;20.53;;;17.50;99.90;;;;;;5021918;28;20483;-84
2021/06/23 02:22:48;;;;;;;24.77;21.07;;;17.70;99.90;;;;;;5012498;28;20499;-84
2021/06/23 02:25:41;;;;;;;20.10;18.10;;;17.50;99.90;;;;;;5021651;28;20455;-84
2021/06/23 02:28:29;;;;;;;21.00;18.93;;;17.30;99.90;;;;;;5037914;28;20480;-85
2021/06/23 02:31:10;;;;;;;20.03;17.97;;;17.30;99.90;;;;;;5022788;28;22060;-84
2021/06/23 02:34:08;;;;;;;22.90;20.43;;;17.20;99.90;;;;;;5025162;28;20528;-82
2021/06/23 02:36:54;;;;;;;20.93;18.73;;;17.10;99.90;;;;;;5015220;28;20458;-84
2021/06/23 02:39:41;;;;;;;19.67;17.63;;;17.10;99.90;;;;;;5078518;22;20490;-84
2021/06/23 02:42:34;;;;;;;21.73;17.40;;;17.10;99.90;;;;;;5063332;28;20543;-83
2021/06/23 02:45:28;;;;;;;20.33;18.20;;;17.20;99.90;;;;;;5075602;28;20451;-84
2021/06/23 02:47:59;;;;;;;20.80;18.90;;;17.40;99.90;;;;;;5066441;28;20558;-83
2021/06/23 02:50:56;;;;;;;18.67;16.73;;;17.40;99.90;;;;;;5064945;28;20454;-84
2021/06/23 02:54:01;;;;;;;18.73;16.83;;;17.30;99.90;;;;;;5066455;28;20446;-85
2021/06/23 02:56:39;;;;;;;19.93;16.97;;;17.20;99.90;;;;;;5082388;28;20478;-84
2021/06/23 02:59:34;;;;;;;20.40;18.30;;;17.40;99.90;;;;;;5068067;28;20519;-83
2021/06/23 03:02:10;;;;;;;18.07;16.17;;;17.40;99.90;;;;;;5065982;28;20478;-84
2021/06/23 03:04:52;;;;;;;21.53;16.13;;;17.60;99.90;;;;;;5065152;28;20499;-83
2021/06/23 03:10:18;;;;;;;18.40;16.30;;;17.80;99.90;;;;;;3171352;26;20519;-84
2021/06/23 03:12:57;;;;;;;19.20;16.70;;;17.80;99.90;;;;;;5039146;28;20456;-84
2021/06/23 03:15:56;;;;;;;16.90;15.40;;;17.50;99.90;;;;;;5052648;28;20465;-85
2021/06/23 03:19:02;;;;;;;18.63;16.83;;;17.40;99.90;;;;;;5059892;28;20465;-85
2021/06/23 03:25:29;;;;;;;19.50;17.33;;;17.60;99.90;;;;;;5047855;28;20452;-83
2021/06/23 03:28:46;;;;;;;17.90;15.70;;;17.70;99.90;;;;;;5045023;28;20455;-85
2021/06/23 03:32:03;;;;;;;17.20;14.60;;;17.40;99.90;;;;;;5044209;28;20581;-85
2021/06/23 03:35:43;;;;;;;15.33;13.93;;;17.30;99.90;;;;;;5013341;28;20455;-85
2021/06/23 03:38:45;;;;;;;16.87;15.07;;;17.50;99.90;;;;;;4967972;28;20984;-85
2021/06/23 03:41:18;;;;;;;19.83;15.40;;;17.50;99.90;;;;;;4965173;28;20480;-85
2021/06/23 03:44:11;;;;;;;15.00;13.57;;;17.30;99.90;;;;;;5042904;28;21043;-85
2021/06/23 03:47:02;;;;;;;15.30;13.97;;;17.20;99.90;;;;;;5043070;28;20470;-84
2021/06/23 03:50:05;;;;;;;14.73;13.10;;;17.10;99.90;;;;;;5043171;28;20604;-83
2021/06/23 03:52:41;;;;;;;15.47;13.47;;;17.10;99.90;;;;;;5045268;28;20598;-85
2021/06/23 04:02:24;;;;;;;;;;;;;;;;;;;;;
2021/06/23 04:05:03;;;;;;;16.07;14.57;;;17.40;99.90;;;;;;5065975;28;20440;-84
2021/06/23 04:11:36;;;;;;;17.73;16.03;;;17.60;99.90;;;;;;5055588;28;20432;-84
2021/06/23 04:14:28;;;;;;;15.80;14.20;;;17.50;99.90;;;;;;5062734;28;20419;-85
2021/06/23 04:17:13;;;;;;;16.40;14.00;;;17.30;99.90;;;;;;5066547;28;20461;-85
2021/06/23 04:20:05;;;;;;;16.70;14.20;;;17.30;99.90;;;;;;5046299;28;20439;-84
2021/06/23 04:22:52;;;;;;;14.30;13.03;;;17.20;99.90;;;;;;5048008;28;20613;-84
2021/06/23 04:25:25;;;;;;;14.70;13.20;;;17.40;99.90;;;;;;5049932;28;20443;-84
2021/06/23 04:27:56;;;;;;;14.73;13.17;;;17.30;99.90;;;;;;5048888;28;20468;-85
2021/06/23 04:30:49;;;;;;;14.57;13.07;;;17.60;99.90;;;;;;5055508;28;20481;-85
2021/06/23 04:33:53;;;;;;;20.83;14.30;;;17.40;99.90;;;;;;5044216;28;20447;-85
2021/06/23 04:37:00;;;;;;;;;;;;;;;;;;;;;
2021/06/23 04:39:42;;;;;;;18.40;15.03;;;17.40;99.90;;;;;;5135180;22;20495;-88
2021/06/23 04:42:17;;;;;;;15.40;13.37;;;17.30;99.90;;;;;;5076156;28;20476;-86
2021/06/23 04:45:14;;;;;;;17.60;13.97;;;17.40;99.90;;;;;;5051955;28;20451;-89
2021/06/23 04:48:01;;;;;;;16.20;14.47;;;17.30;99.90;;;;;;5055638;28;20486;-85
2021/06/23 04:50:51;;;;;;;15.07;13.67;;;17.30;99.90;;;;;;5067586;28;20803;-86
2021/06/23 04:54:21;;;;;;;15.73;14.13;;;17.40;99.90;;;;;;5077948;28;20431;-87
2021/06/23 05:02:50;;;;;;;16.20;14.70;;;17.30;99.90;;;;;;3061383;22;20653;-88
2021/06/23 05:05:25;;;;;;;16.97;15.20;;;17.40;99.90;;;;;;5047791;28;20461;-86
2021/06/23 05:08:06;;;;;;;20.80;14.90;;;17.40;99.90;;;;;;5036483;28;20472;-86
2021/06/23 05:10:49;;;;;;;18.60;14.87;;;17.50;99.90;;;;;;5028599;28;20448;-86
2021/06/23 05:13:49;;;;;;;16.57;14.93;;;17.50;99.90;;;;;;5028820;28;20540;-88
2021/06/23 05:16:32;;;;;;;16.03;14.53;;;17.50;99.90;;;;;;5029944;28;20582;-86
2021/06/23 05:19:20;;;;;;;17.00;15.30;;;17.60;99.90;;;;;;5031279;28;21222;-86
2021/06/23 05:22:03;;;;;;;16.60;14.93;;;17.60;99.90;;;;;;5032465;28;20499;-88
2021/06/23 05:24:54;;;;;;;16.33;14.63;;;17.50;99.90;;;;;;5030870;28;20550;-83
2021/06/23 05:27:39;;;;;;;14.97;13.43;;;17.60;99.90;;;;;;5027487;28;20776;-84
2021/06/23 05:31:11;;;;;;;15.27;13.77;;;17.60;99.90;;;;;;5021407;28;21140;-84
2021/06/23 05:34:01;;;;;;;17.50;13.80;;;17.50;99.90;;;;;;4957381;28;20452;-86
2021/06/23 05:37:17;;;;;;;14.40;12.90;;;17.50;99.90;;;;;;5051151;28;20444;-84
2021/06/23 05:40:16;;;;;;;19.27;14.30;;;17.50;99.90;;;;;;5063266;28;20452;-85
2021/06/23 05:43:06;;;;;;;16.03;14.43;;;17.60;99.90;;;;;;4995015;28;20562;-84
2021/06/23 05:45:51;;;;;;;15.87;14.43;;;17.70;99.90;;;;;;5051971;28;20463;-86
2021/06/23 05:48:44;;;;;;;16.30;14.43;;;17.70;99.90;;;;;;5057894;28;20440;-86
2021/06/23 05:51:20;;;;;;;13.80;12.60;;;17.60;99.90;;;;;;5050377;28;20456;-83
2021/06/23 05:53:56;;;;;;;18.93;13.63;;;17.60;99.90;;;;;;5051754;28;20436;-84
2021/06/23 05:56:39;;;;;;;15.60;13.23;;;17.60;99.90;;;;;;5054137;28;20448;-85
2021/06/23 06:02:38;;;;;;;15.60;14.20;;;17.70;99.90;;;;;;5034809;28;20510;-85
2021/06/23 06:05:34;;;;;;;17.20;14.60;;;17.90;99.90;;;;;;5054765;28;20445;-84
2021/06/23 06:08:29;;;;;;;16.03;14.13;;;17.80;99.90;;;;;;5028757;28;20446;-86
2021/06/23 06:11:09;;;;;;;15.60;14.00;;;17.70;99.90;;;;;;5048970;28;20783;-85
2021/06/23 06:14:12;;;;;;;17.50;15.90;;;17.70;99.90;;;;;;5038092;28;20521;-84
2021/06/23 06:18:04;;;;;;;18.10;14.40;;;17.70;99.90;;;;;;5030836;28;20449;-85
2021/06/23 06:21:51;;;;;;;15.53;13.40;;;17.60;99.90;;;;;;4928116;29;20457;-86
2021/06/23 06:24:52;;;;;;;21.87;14.13;;;17.50;99.90;;;;;;4898204;28;20453;-84
2021/06/23 06:28:26;;;;;;;16.10;14.17;;;17.60;99.90;;;;;;4983827;22;20585;-86
2021/06/23 06:39:29;;;;;;;17.80;15.80;;;17.60;99.90;;;;;;4864734;29;20458;-85
2021/06/23 06:42:46;;;;;;;17.20;15.60;;;17.50;99.90;;;;;;4856122;29;20495;-84
2021/06/23 06:49:31;;;;;;;18.70;16.83;;;17.40;99.90;;;;;;4975389;28;20534;-84
2021/06/23 06:52:11;;;;;;;17.40;15.90;;;17.40;99.90;;;;;;4967686;28;20448;-84
2021/06/23 06:55:57;;;;;;;17.73;15.63;;;17.40;99.90;;;;;;4971956;28;20511;-84
2021/06/23 06:58:41;;;;;;;19.83;15.80;;;17.40;99.90;;;;;;4894201;29;21054;-85
2021/06/23 07:02:21;;;;;;;20.10;16.93;;;17.40;99.90;;;;;;4892896;29;20541;-85
2021/06/23 07:05:41;;;;;;;;;;;;;;;;;;;;;
2021/06/23 07:11:12;;;;;;;17.63;15.90;;;17.80;99.90;;;;;;5305887;22;21035;-85
2021/06/23 07:14:29;;;;;;;18.20;16.00;;;17.70;99.90;;;;;;5053343;28;22474;-84
2021/06/23 07:21:45;;;;;;;17.10;15.57;;;17.50;99.90;;;;;;4939530;28;20456;-85
2021/06/23 07:39:15;;;;;;;21.07;19.00;;;18.50;99.90;;;;;;4956656;28;20460;-85
2021/06/23 07:42:16;;;;;;;21.07;19.23;;;18.10;99.90;;;;;;4891455;29;20573;-83
2021/06/23 07:45:41;;;;;;;;;;;;;;;;;;;;;
2021/06/23 07:48:43;;;;;;;18.90;16.93;;;17.80;99.90;;;;;;4888085;29;20491;-85
2021/06/23 07:54:30;;;;;;;22.00;20.00;;;17.70;99.90;;;;;;4886900;29;20479;-84
2021/06/23 08:15:29;;;;;;;18.13;16.43;;;17.90;99.90;;;;;;3062925;22;20517;-84
2021/06/23 08:18:21;;;;;;;17.93;16.20;;;17.90;99.90;;;;;;5032424;28;20511;-83
2021/06/23 08:21:19;;;;;;;19.27;17.27;;;18.20;99.90;;;;;;5080374;28;20508;-84
2021/06/23 08:24:15;;;;;;;19.03;17.23;;;18.10;99.90;;;;;;5064430;28;20466;-83
2021/06/23 08:27:00;;;;;;;17.77;15.87;;;18.00;99.90;;;;;;5064191;28;20567;-84
2021/06/23 08:29:40;;;;;;;17.80;15.97;;;18.00;99.90;;;;;;5060889;28;20826;-84
2021/06/23 08:32:41;;;;;;;20.77;17.63;;;18.10;99.90;;;;;;5052731;28;20543;-83
2021/06/23 08:35:32;;;;;;;26.57;19.33;;;18.60;99.90;;;;;;5059062;28;20439;-85
2021/06/23 08:38:32;;;;;;;27.37;18.80;;;19.00;99.90;;;;;;5065276;28;20574;-85
2021/06/23 08:48:48;;;;;;;19.77;16.53;;;18.60;99.90;;;;;;5010450;28;20429;-84
2021/06/23 08:51:21;;;;;;;20.20;17.10;;;18.50;99.90;;;;;;5007670;28;20449;-84
2021/06/23 08:54:05;;;;;;;19.17;17.37;;;18.80;99.90;;;;;;5003726;28;20545;-84
2021/06/23 09:00:02;;;;;;;18.60;16.10;;;18.60;99.90;;;;;;5082838;22;21054;-86
2021/06/23 09:03:06;;;;;;;18.43;16.03;;;18.40;99.90;;;;;;5062921;28;21233;-85
2021/06/23 09:06:00;;;;;;;19.60;16.60;;;18.50;99.90;;;;;;5056642;28;20812;-84
2021/06/23 09:09:37;;;;;;;18.53;16.60;;;18.80;99.90;;;;;;5061918;28;20474;-84
2021/06/23 09:12:28;;;;;;;16.37;14.83;;;18.90;99.90;;;;;;5012652;28;20463;-85
2021/06/23 09:15:17;;;;;;;21.77;19.47;;;18.80;99.90;;;;;;5054708;28;20443;-83
2021/06/23 09:17:58;;;;;;;18.33;16.53;;;18.70;99.90;;;;;;5055244;28;20555;-85
2021/06/23 09:22:47;;;;;;;;;;;;;;;;;;;;;
2021/06/23 09:25:54;;;;;;;18.63;16.10;;;19.00;99.90;;;;;;4972455;28;20514;-84
2021/06/23 09:32:30;;;;;;;22.23;20.30;;;19.10;99.90;;;;;;4891382;29;21917;-84
2021/06/23 09:35:09;;;;;;;26.50;17.10;;;18.90;99.90;;;;;;4894116;29;20452;-85
2021/06/23 09:46:53;;;;;;;16.80;15.20;;;18.80;99.90;;;;;;4987407;28;20435;-86
2021/06/23 09:49:25;;;;;;;17.00;15.40;;;18.80;99.90;;;;;;5048401;28;20501;-84
2021/06/23 09:56:25;;;;;;;;;;;;;;;;;;;;;
2021/06/23 09:59:28;;;;;;;17.57;15.87;;;19.20;99.90;;;;;;5119093;22;20528;-84
2021/06/23 10:10:00;;;;;;;17.23;15.50;;;19.40;99.90;;;;;;5725239;22;20496;-82
2021/06/23 10:12:37;;;;;;;16.60;15.10;;;19.50;99.90;;;;;;5071157;28;20482;-86
2021/06/23 10:15:20;;;;;;;17.90;16.00;;;19.50;99.90;;;;;;5049784;28;20816;-83
2021/06/23 10:17:59;;;;;;;18.40;16.80;;;19.50;99.90;;;;;;5045039;28;20478;-83
2021/06/23 10:22:00;;;;;;;;;;;;;;;;;;;;;
2021/06/23 10:24:54;;;;;;;16.17;14.57;;;19.60;99.90;;;;;;4938240;29;20444;-85
2021/06/23 10:30:45;;;;;;;17.10;15.47;;;19.80;99.90;;;;;;4911628;28;20554;-84
2021/06/23 10:33:31;;;;;;;17.23;15.47;;;20.00;99.60;;;;;;4979956;28;20586;-84
2021/06/23 10:40:03;;;;;;;18.27;16.60;;;19.80;99.90;;;;;;5007142;28;20520;-84
2021/06/23 10:42:44;;;;;;;17.30;14.60;;;19.80;99.70;;;;;;4991396;28;20491;-85
2021/06/23 10:45:41;;;;;;;19.80;17.00;;;19.80;99.90;;;;;;5046284;28;20478;-86
2021/06/23 10:52:26;;;;;;;19.00;17.20;;;19.60;99.90;;;;;;4973124;28;20424;-84
2021/06/23 10:55:29;;;;;;;19.00;17.27;;;20.30;98.90;;;;;;4955592;28;21027;-85
2021/06/23 11:03:59;;;;;;;22.23;19.83;;;19.70;99.20;;;;;;5228761;22;20482;-83
2021/06/23 11:07:04;;;;;;;22.17;20.00;;;20.00;99.20;;;;;;5048522;28;20443;-86
2021/06/23 11:17:34;;;;;;;18.40;16.70;;;19.90;99.60;;;;;;5010688;28;20414;-85
2021/06/23 11:20:41;;;;;;;20.27;16.67;;;20.00;99.30;;;;;;5070130;28;20832;-85
2021/06/23 11:23:51;;;;;;;16.50;15.13;;;20.00;99.00;;;;;;5035875;28;20586;-84
2021/06/23 11:26:23;;;;;;;20.47;16.20;;;20.10;98.80;;;;;;5071979;28;20500;-86
2021/06/23 11:29:15;;;;;;;19.23;15.63;;;20.60;98.20;;;;;;5071265;28;20732;-86
2021/06/23 11:32:32;;;;;;;17.60;15.80;;;20.80;97.90;;;;;;5072816;28;20455;-85
2021/06/23 11:35:36;;;;;;;16.20;14.70;;;21.00;97.70;;;;;;5049408;28;20460;-85
2021/06/23 11:41:25;;;;;;;15.50;14.20;;;21.40;96.40;;;;;;1414473;25;20509;-83
2021/06/23 11:44:29;;;;;;;16.53;14.93;;;21.70;95.80;;;;;;5109861;27;20537;-85
2021/06/23 11:51:31;;;;;;;16.33;14.30;;;22.10;94.70;;;;;;5110467;28;20455;-87
2021/06/23 11:54:50;;;;;;;16.13;14.53;;;22.90;93.20;;;;;;5084760;28;20577;-85
2021/06/23 11:57:51;;;;;;;16.13;14.37;;;23.00;93.00;;;;;;5059573;28;20442;-86
2021/06/23 12:04:40;;;;;;;15.40;13.83;;;22.40;93.70;;;;;;4911088;29;20610;-84
2021/06/23 12:07:25;;;;;;;17.50;14.30;;;22.40;93.60;;;;;;4913707;29;20769;-83
2021/06/23 12:10:11;;;;;;;15.57;14.03;;;22.20;93.60;;;;;;4993836;28;20446;-86
2021/06/23 12:13:05;;;;;;;16.60;15.00;;;21.90;94.00;;;;;;5070954;28;20472;-86
2021/06/23 12:16:15;;;;;;;15.77;14.30;;;21.60;94.60;;;;;;5095926;28;20460;-87
2021/06/23 12:19:01;;;;;;;16.77;14.83;;;21.30;94.90;;;;;;5090713;28;20454;-82
2021/06/23 12:21:54;;;;;;;16.77;15.17;;;21.10;95.70;;;;;;5097157;28;20432;-84
2021/06/23 12:24:50;;;;;;;17.33;15.80;;;21.00;95.80;;;;;;5099960;28;20931;-84
2021/06/23 12:27:34;;;;;;;18.13;14.70;;;21.10;95.80;;;;;;5094929;28;20470;-87
2021/06/23 12:30:14;;;;;;;15.00;13.60;;;21.60;95.20;;;;;;5100805;28;20532;-86
2021/06/23 12:33:10;;;;;;;;;;;;;;;;;;;;;
2021/06/23 12:43:43;;;;;;;17.30;14.10;;;22.20;94.00;;;;;;5035492;28;20519;-84
2021/06/23 12:47:41;;;;;;;;;;;;;;;;;;;;;
2021/06/23 12:50:42;;;;;;;15.17;13.63;;;21.50;95.30;;;;;;5081307;28;20452;-85
2021/06/23 12:53:36;;;;;;;15.20;13.90;;;21.70;95.30;;;;;;5096400;28;20446;-85
2021/06/23 12:57:00;;;;;;;17.50;15.57;;;22.10;94.10;;;;;;5097536;28;20464;-85
2021/06/23 12:59:49;;;;;;;16.27;14.53;;;21.80;94.30;;;;;;5110043;28;20468;-86
2021/06/23 13:02:28;;;;;;;14.53;13.00;;;21.40;95.00;;;;;;5095791;28;20483;-84
2021/06/23 13:05:20;;;;;;;;;;;;;;;;;;;;;
2021/06/23 13:07:58;;;;;;;14.73;13.37;;;21.60;95.30;;;;;;5106939;28;20469;-85
2021/06/23 13:14:24;;;;;;;14.27;12.87;;;21.70;94.80;;;;;;5100140;28;20610;-86
2021/06/23 13:17:20;;;;;;;14.37;12.27;;;21.60;95.00;;;;;;5076016;28;20618;-86
2021/06/23 13:20:12;;;;;;;17.80;13.63;;;21.60;95.00;;;;;;5094772;28;20460;-83
2021/06/23 13:23:22;;;;;;;14.30;12.93;;;21.70;94.60;;;;;;5092228;28;20426;-84
2021/06/23 13:30:03;;;;;;;19.20;15.30;;;22.60;93.30;;;;;;5652237;22;20496;-85
2021/06/23 13:33:14;;;;;;;15.97;14.27;;;22.40;93.10;;;;;;5088764;28;20991;-86
2021/06/23 13:43:31;;;;;;;16.67;15.00;;;21.50;94.70;;;;;;5037769;28;20871;-82
2021/06/23 13:49:54;;;;;;;22.47;16.10;;;22.20;93.60;;;;;;5874373;22;20498;-84
2021/06/23 13:56:35;;;;;;;15.60;14.10;;;21.60;94.30;;;;;;5024223;28;21878;-85
2021/06/23 14:03:12;;;;;;;17.40;15.67;;;21.40;95.00;;;;;;5022512;28;20460;-83
2021/06/23 14:06:16;;;;;;;15.43;13.93;;;21.50;95.10;;;;;;5102076;28;20510;-84
2021/06/23 14:13:18;;;;;;;19.90;14.10;;;21.50;95.10;;;;;;5013476;28;20505;-84
2021/06/23 14:16:22;;;;;;;17.00;14.10;;;21.60;95.00;;;;;;5078179;28;20486;-84
2021/06/23 14:19:34;;;;;;;15.53;14.07;;;21.80;94.90;;;;;;5080690;28;20491;-84
2021/06/23 14:22:47;;;;;;;;;;;;;;;;;;;;;
2021/06/23 14:25:36;;;;;;;14.97;13.60;;;22.00;94.30;;;;;;5092902;28;20449;-84
2021/06/23 14:28:24;;;;;;;16.03;14.53;;;22.00;94.30;;;;;;5079098;28;21377;-84
2021/06/23 14:31:18;;;;;;;17.43;14.30;;;22.10;94.30;;;;;;5080310;28;20517;-83
2021/06/23 14:41:30;;;;;;;15.13;13.83;;;22.70;93.80;;;;;;4997122;28;20521;-84
2021/06/23 14:44:06;;;;;;;16.43;14.93;;;22.70;93.20;;;;;;5035504;28;20499;-85
2021/06/23 14:47:16;;;;;;;18.70;14.23;;;22.60;92.90;;;;;;5025109;28;20962;-84
2021/06/23 14:50:00;;;;;;;15.60;13.33;;;22.30;93.20;;;;;;5032439;28;20456;-85
2021/06/23 14:52:38;;;;;;;19.90;15.27;;;22.50;93.40;;;;;;5042488;28;20448;-85
2021/06/23 14:55:24;;;;;;;15.77;14.33;;;22.90;92.90;;;;;;5050013;28;20433;-85
2021/06/23 14:58:12;;;;;;;17.13;15.53;;;23.00;92.40;;;;;;5044512;28;20474;-84
2021/06/23 15:00:48;;;;;;;17.90;16.00;;;22.90;92.30;;;;;;5045567;28;20515;-85
2021/06/23 15:03:58;;;;;;;16.40;14.70;;;22.80;92.30;;;;;;5028208;28;20573;-84
2021/06/23 15:09:57;;;;;;;17.13;15.33;;;22.90;92.80;;;;;;5155458;22;20486;-82
2021/06/23 15:13:01;;;;;;;16.90;13.17;;;22.90;92.30;;;;;;5066579;28;20607;-85
2021/06/23 15:16:41;;;;;;;16.27;14.70;;;23.10;92.40;;;;;;5000916;28;20897;-86
2021/06/23 15:19:22;;;;;;;18.07;15.50;;;23.10;91.90;;;;;;5010462;28;20478;-85
2021/06/23 15:22:19;;;;;;;16.30;14.70;;;23.00;92.20;;;;;;5007614;28;20450;-86
2021/06/23 15:25:18;;;;;;;;;;;;;;;;;;;;;
2021/06/23 15:39:35;;;;;;;16.00;14.37;;;23.40;91.80;;;;;;4919188;29;21442;-84
2021/06/23 15:45:56;;;;;;;15.73;14.23;;;23.60;91.00;;;;;;4882471;29;20437;-85
2021/06/23 15:48:46;;;;;;;16.37;14.90;;;23.50;90.60;;;;;;4866478;29;20483;-85
2021/06/23 15:51:31;;;;;;;16.10;14.50;;;23.30;91.20;;;;;;4876044;29;20463;-85
2021/06/23 16:06:39;;;;;;;14.47;13.00;;;23.20;90.90;;;;;;4845035;29;21178;-84
2021/06/23 16:10:58;;;;;;;16.63;13.10;;;22.90;91.50;;;;;;4864037;29;20545;-84
2021/06/23 16:13:30;;;;;;;16.47;12.77;;;23.40;91.00;;;;;;4883001;29;20964;-85
2021/06/23 16:16:26;;;;;;;14.80;13.60;;;23.00;91.50;;;;;;4869686;29;21181;-84
2021/06/23 16:19:09;;;;;;;15.37;14.10;;;22.80;91.60;;;;;;4913797;29;20873;-84
2021/06/23 16:21:56;;;;;;;14.50;13.20;;;22.80;91.60;;;;;;4928623;29;21032;-83
2021/06/23 16:24:49;;;;;;;13.87;12.57;;;22.80;91.50;;;;;;5002274;28;20564;-83
2021/06/23 16:27:35;;;;;;;14.73;13.33;;;22.80;91.90;;;;;;4959611;28;20465;-84
2021/06/23 16:34:31;;;;;;;13.10;11.80;;;22.90;91.40;;;;;;4963871;28;20423;-83
2021/06/23 16:37:37;;;;;;;;;;;;;;;;;;;;;
2021/06/23 16:40:34;;;;;;;15.97;13.40;;;22.90;91.80;;;;;;5104748;28;20521;-85
2021/06/23 16:50:00;;;;;;;15.33;14.03;;;23.50;90.80;;;;;;5168653;22;20492;-84
2021/06/23 16:52:44;;;;;;;15.40;13.83;;;23.20;90.80;;;;;;5084855;28;20445;-84
2021/06/23 17:02:43;;;;;;;15.17;13.67;;;23.20;91.10;;;;;;5029546;28;20441;-85
2021/06/23 17:05:36;;;;;;;16.03;14.47;;;23.20;91.10;;;;;;5004745;28;20435;-83
2021/06/23 17:08:33;;;;;;;15.53;14.27;;;23.40;90.60;;;;;;5094990;28;20481;-84
2021/06/23 17:14:40;;;;;;;14.20;12.70;;;23.40;90.70;;;;;;5101180;28;20566;-84
2021/06/23 17:17:34;;;;;;;15.60;14.07;;;23.00;91.10;;;;;;5091099;28;20453;-86
2021/06/23 17:20:26;;;;;;;15.00;13.60;;;22.90;91.00;;;;;;5029401;28;20735;-84
2021/06/23 17:23:08;;;;;;;13.80;12.40;;;22.90;91.10;;;;;;5044603;28;20462;-86
2021/06/23 17:26:07;;;;;;;16.00;13.20;;;22.90;91.10;;;;;;5044783;28;20441;-86
2021/06/23 17:29:15;;;;;;;14.10;12.60;;;23.30;90.60;;;;;;5044109;28;20493;-86
2021/06/23 17:32:14;;;;;;;;;;;;;;;;;;;;;
2021/06/23 17:35:03;;;;;;;14.03;12.77;;;23.20;90.10;;;;;;5040247;28;20433;-83
2021/06/23 17:37:48;;;;;;;14.87;13.40;;;23.00;90.50;;;;;;5038736;28;20491;-85
2021/06/23 17:40:41;;;;;;;14.47;13.10;;;22.90;90.80;;;;;;5034811;28;20557;-83
2021/06/23 17:43:26;;;;;;;15.10;13.50;;;23.20;90.40;;;;;;5027480;28;20489;-85
2021/06/23 17:46:21;;;;;;;14.33;12.20;;;22.90;90.50;;;;;;5027469;28;20457;-83
2021/06/23 17:49:31;;;;;;;;;;;;;;;;;;;;;
2021/06/23 17:52:25;;;;;;;13.57;11.97;;;22.90;91.00;;;;;;5086732;28;20496;-84
2021/06/23 17:55:50;;;;;;;13.40;12.10;;;22.80;91.00;;;;;;5073280;28;20455;-83
2021/06/23 18:09:16;;;;;;;13.27;12.10;;;22.90;90.60;;;;;;3778333;22;20484;-84
2021/06/23 18:15:06;;;;;;;11.27;10.10;;;23.00;90.90;;;;;;5038281;28;20448;-83
2021/06/23 18:21:44;;;;;;;11.83;10.93;;;23.20;91.20;;;;;;5051134;28;20444;-84
2021/06/23 18:27:46;;;;;;;11.58;10.22;;;22.80;91.20;;;;;;5224729;22;10000783;-83
2021/06/23 18:30:24;;;;;;;12.30;11.00;;;22.60;92.10;;;;;;5036881;28;20404;-82
2021/06/23 18:34:02;;;;;;;16.17;10.73;;;22.40;92.70;;;;;;4993800;28;20457;-83
2021/06/23 18:42:53;;;;;;;12.20;10.87;;;22.50;93.10;;;;;;5035191;28;20983;-85
2021/06/23 18:45:39;;;;;;;11.03;9.90;;;22.40;93.40;;;;;;5006859;28;20556;-83
2021/06/23 18:48:19;;;;;;;10.80;9.70;;;22.10;93.60;;;;;;5018106;28;20496;-84
2021/06/23 18:50:59;;;;;;;9.80;8.90;;;22.00;93.90;;;;;;5005708;28;20462;-84
2021/06/23 18:53:55;;;;;;;;;;;;;;;;;;;;;
2021/06/23 18:56:26;;;;;;;11.37;9.43;;;21.90;94.30;;;;;;5022235;28;20440;-85
2021/06/23 18:59:20;;;;;;;11.27;9.83;;;21.90;94.50;;;;;;5021267;28;20467;-84
2021/06/23 19:06:16;;;;;;;15.43;11.20;;;22.00;94.30;;;;;;5018998;28;20477;-83
2021/06/23 19:08:58;;;;;;;11.77;10.43;;;22.50;93.70;;;;;;5003913;28;20531;-85
2021/06/23 19:16:26;;;;;;;12.50;9.30;;;22.40;93.30;;;;;;4898114;29;20471;-85
2021/06/23 19:18:53;;;;;;;10.70;9.60;;;22.00;93.60;;;;;;5028588;28;20479;-83
2021/06/23 19:22:29;;;;;;;10.70;9.80;;;21.80;93.70;;;;;;5019579;28;20463;-87
2021/06/23 19:25:27;;;;;;;10.87;9.80;;;22.10;93.20;;;;;;5026823;28;20486;-84
2021/06/23 19:32:26;;;;;;;9.60;8.90;;;21.90;93.50;;;;;;5007340;28;20574;-83
2021/06/23 19:35:17;;;;;;;12.67;10.80;;;21.70;93.70;;;;;;5018411;28;20461;-84
2021/06/23 19:38:32;;;;;;;11.83;10.63;;;22.10;93.30;;;;;;5004468;28;20473;-86
2021/06/23 19:41:19;;;;;;;10.90;10.00;;;22.00;92.90;;;;;;5024745;28;20489;-85
2021/06/23 19:44:41;;;;;;;11.43;10.33;;;21.80;93.30;;;;;;5007422;28;20573;-84
2021/06/23 19:47:43;;;;;;;12.60;10.10;;;21.80;93.80;;;;;;4940018;28;21228;-84
2021/06/23 19:54:24;;;;;;;12.33;10.70;;;21.60;94.10;;;;;;4953396;28;20447;-85
2021/06/23 19:57:11;;;;;;;13.13;10.17;;;21.40;94.70;;;;;;5000690;28;20448;-83
2021/06/23 20:00:43;;;;;;;;;;;;;;;;;;;;;
2021/06/23 20:03:54;;;;;;;11.37;10.10;;;21.10;96.40;;;;;;4937836;29;20445;-84
2021/06/23 20:09:56;;;;;;;11.77;10.67;;;21.00;97.00;;;;;;5022438;28;20581;-82
2021/06/23 20:12:51;;;;;;;11.50;10.50;;;21.00;96.90;;;;;;5043039;28;20483;-86
2021/06/23 20:15:43;;;;;;;11.23;10.13;;;20.90;97.10;;;;;;5038408;28;20504;-85
2021/06/23 20:18:52;;;;;;;;;;;;;;;;;;;;;
2021/06/23 20:21:44;;;;;;;12.20;10.70;;;20.70;97.60;;;;;;5018253;28;20471;-85